Time;durP1;ratioP1;P1;durP2;ratioP2;P2;SDS_P1;SDS_P2;PMS_P1;PMS_P2;Temp;Humidity;BMP_temperature;BMP_pressure;BME280_temperature;BME280_humidity;BME280_pressure;Samples;Min_cycle;Max_cycle;Signal;HPM_P1;HPM_P2
2023/09/16 00:00:34;;;;;;;10.68;9.05;;;14.20;99.90;;;;;;7376695;19;20403;-63
2023/09/16 00:03:01;;;;;;;9.80;8.35;;;14.20;99.90;;;;;;7372430;19;20737;-64
2023/09/16 00:05:27;;;;;;;9.88;8.10;;;14.10;99.90;;;;;;7372233;19;20054;-63
2023/09/16 00:07:54;;;;;;;11.07;8.85;;;14.10;99.90;;;;;;7375348;19;20053;-64
2023/09/16 00:10:44;;;;;;;10.75;9.15;;;14.10;99.90;;;;;;7375480;19;20026;-63
2023/09/16 00:13:11;;;;;;;10.73;9.73;;;14.10;99.90;;;;;;7374980;19;20030;-63
2023/09/16 00:15:37;;;;;;;10.25;9.25;;;14.10;99.90;;;;;;7376735;19;20042;-64
2023/09/16 00:18:04;;;;;;;11.55;9.57;;;14.10;99.90;;;;;;7368044;19;20485;-63
2023/09/16 00:20:30;;;;;;;13.68;9.25;;;14.00;99.90;;;;;;7372043;19;20502;-64
2023/09/16 00:22:57;;;;;;;10.75;9.63;;;14.00;99.90;;;;;;7373566;19;20023;-63
2023/09/16 00:25:43;;;;;;;11.00;9.90;;;14.00;99.90;;;;;;7374664;19;20010;-62
2023/09/16 00:28:09;;;;;;;10.88;9.32;;;13.90;99.90;;;;;;7371367;19;20014;-62
2023/09/16 00:30:36;;;;;;;10.52;9.52;;;13.90;99.90;;;;;;7373183;19;20776;-62
2023/09/16 00:33:03;;;;;;;10.98;9.60;;;13.90;99.90;;;;;;7371811;19;20022;-63
2023/09/16 00:35:30;;;;;;;11.25;10.13;;;13.80;99.90;;;;;;7373571;19;20022;-63
2023/09/16 00:37:57;;;;;;;13.13;10.73;;;13.80;99.90;;;;;;7371582;19;20041;-63
2023/09/16 00:40:23;;;;;;;12.52;11.23;;;13.80;99.90;;;;;;7372580;19;20841;-64
2023/09/16 00:43:10;;;;;;;13.55;11.23;;;13.80;99.90;;;;;;7375817;19;20506;-63
2023/09/16 00:45:36;;;;;;;12.30;11.00;;;13.80;99.90;;;;;;7372558;19;20018;-63
2023/09/16 00:48:22;;;;;;;12.90;11.20;;;13.80;99.90;;;;;;7370184;19;20171;-64
2023/09/16 00:50:49;;;;;;;12.52;11.32;;;13.80;99.90;;;;;;7365562;19;20022;-63
2023/09/16 00:53:15;;;;;;;14.20;12.23;;;13.80;99.90;;;;;;7371479;19;20010;-64
2023/09/16 00:55:45;;;;;;;13.90;11.35;;;13.80;99.90;;;;;;7371961;19;20025;-63
2023/09/16 00:58:11;;;;;;;12.82;11.52;;;13.80;99.90;;;;;;7369483;19;20011;-64
2023/09/16 01:00:38;;;;;;;14.75;13.35;;;13.80;99.90;;;;;;7367775;19;20028;-63
2023/09/16 01:03:06;;;;;;;14.57;12.85;;;13.80;99.90;;;;;;7368108;19;20746;-62
2023/09/16 01:05:34;;;;;;;13.95;12.65;;;13.80;99.90;;;;;;7367798;19;20022;-63
2023/09/16 01:08:00;;;;;;;13.13;11.90;;;13.80;99.90;;;;;;7371696;19;20877;-63
2023/09/16 01:10:27;;;;;;;14.80;12.20;;;13.80;99.90;;;;;;7369457;19;20030;-63
2023/09/16 01:12:55;;;;;;;13.43;11.40;;;13.80;99.90;;;;;;7368229;19;20022;-63
2023/09/16 01:15:27;;;;;;;13.90;12.05;;;13.80;99.90;;;;;;7367745;19;20023;-63
2023/09/16 01:18:11;;;;;;;14.50;13.05;;;13.80;99.90;;;;;;7367464;19;20018;-63
2023/09/16 01:20:39;;;;;;;14.23;12.75;;;13.90;99.90;;;;;;7368481;19;20090;-62
2023/09/16 01:23:06;;;;;;;13.57;12.27;;;13.80;99.90;;;;;;7368456;19;20033;-63
2023/09/16 01:25:33;;;;;;;12.68;11.38;;;13.80;99.90;;;;;;7367751;19;20097;-62
2023/09/16 01:27:59;;;;;;;13.38;12.07;;;13.80;99.90;;;;;;7367407;19;20057;-63
2023/09/16 01:30:28;;;;;;;13.98;12.40;;;13.80;99.90;;;;;;7372336;19;20015;-63
2023/09/16 01:33:19;;;;;;;13.93;12.68;;;13.80;99.90;;;;;;7365829;19;20022;-63
2023/09/16 01:35:48;;;;;;;15.10;13.45;;;13.80;99.90;;;;;;7369152;19;20017;-63
2023/09/16 01:38:18;;;;;;;13.68;12.38;;;13.80;99.90;;;;;;7367921;19;20026;-63
2023/09/16 01:40:47;;;;;;;12.90;11.55;;;13.80;99.90;;;;;;7371175;19;20015;-63
2023/09/16 01:43:15;;;;;;;13.65;12.10;;;13.80;99.90;;;;;;7371269;19;20025;-63
2023/09/16 01:45:43;;;;;;;13.80;12.45;;;13.80;99.90;;;;;;7368599;19;20351;-62
2023/09/16 01:48:09;;;;;;;14.02;12.18;;;13.90;99.90;;;;;;7366037;19;20505;-62
2023/09/16 01:50:37;;;;;;;14.32;12.88;;;13.80;99.90;;;;;;7367649;19;20502;-62
2023/09/16 01:53:06;;;;;;;13.13;11.93;;;13.80;99.90;;;;;;7367032;19;20026;-62
2023/09/16 01:55:34;;;;;;;12.93;11.73;;;13.80;99.90;;;;;;7367016;19;20382;-63
2023/09/16 01:58:00;;;;;;;14.18;12.40;;;13.80;99.90;;;;;;7373474;19;20030;-62
2023/09/16 02:00:26;;;;;;;15.02;13.63;;;13.70;99.90;;;;;;7375697;19;20370;-63
2023/09/16 02:03:12;;;;;;;13.48;11.90;;;13.70;99.90;;;;;;7378099;19;20784;-63
2023/09/16 02:05:39;;;;;;;13.70;12.40;;;13.60;99.90;;;;;;7373976;19;20043;-63
2023/09/16 02:08:05;;;;;;;14.18;12.88;;;13.60;99.90;;;;;;7373426;19;20532;-63
2023/09/16 02:10:31;;;;;;;14.52;12.55;;;13.50;99.90;;;;;;7375265;19;20036;-63
2023/09/16 02:12:57;;;;;;;14.38;12.98;;;13.50;99.90;;;;;;7376171;19;20014;-63
2023/09/16 02:15:25;;;;;;;15.05;13.05;;;13.50;99.90;;;;;;7371804;19;20026;-63
2023/09/16 02:17:51;;;;;;;15.65;14.07;;;13.50;99.90;;;;;;7375419;19;20018;-64
2023/09/16 02:20:18;;;;;;;14.32;13.02;;;13.50;99.90;;;;;;7374828;19;20493;-63
2023/09/16 02:22:44;;;;;;;17.35;15.45;;;13.40;99.90;;;;;;7377196;19;20025;-63
2023/09/16 02:25:33;;;;;;;15.90;14.40;;;13.40;99.90;;;;;;7374029;19;20022;-63
2023/09/16 02:28:02;;;;;;;16.15;14.23;;;13.40;99.90;;;;;;7376048;19;20022;-63
2023/09/16 02:30:28;;;;;;;15.35;13.88;;;13.30;99.90;;;;;;7375208;19;20694;-63
2023/09/16 02:32:54;;;;;;;16.60;14.95;;;13.40;99.90;;;;;;7369149;19;20074;-63
2023/09/16 02:35:21;;;;;;;16.67;14.52;;;13.30;99.90;;;;;;7373346;19;20032;-63
2023/09/16 02:37:47;;;;;;;14.85;13.45;;;13.30;99.90;;;;;;7374097;19;20006;-63
2023/09/16 02:40:13;;;;;;;16.58;14.93;;;13.30;99.90;;;;;;7369971;19;20082;-63
2023/09/16 02:42:39;;;;;;;15.63;14.10;;;13.30;99.90;;;;;;7375449;19;20078;-63
2023/09/16 02:45:06;;;;;;;17.90;15.73;;;13.30;99.90;;;;;;7368775;19;20037;-64
2023/09/16 02:47:33;;;;;;;16.05;14.43;;;13.30;99.90;;;;;;7377176;19;20024;-63
2023/09/16 02:50:00;;;;;;;17.92;16.23;;;13.30;99.90;;;;;;7369588;19;20021;-63
2023/09/16 02:52:27;;;;;;;17.25;15.45;;;13.30;99.90;;;;;;7374360;19;20103;-63
2023/09/16 02:54:53;;;;;;;17.95;16.08;;;13.30;99.90;;;;;;7371683;19;20018;-65
2023/09/16 02:57:19;;;;;;;17.77;15.65;;;13.30;99.90;;;;;;7374319;19;20017;-63
2023/09/16 02:59:45;;;;;;;16.52;14.90;;;13.20;99.90;;;;;;7363142;19;20029;-63
2023/09/16 03:02:12;;;;;;;15.70;14.15;;;13.20;99.90;;;;;;7371466;19;20025;-63
2023/09/16 03:04:39;;;;;;;16.17;14.55;;;13.10;99.90;;;;;;7367566;19;20090;-63
2023/09/16 03:07:05;;;;;;;15.73;14.15;;;13.10;99.90;;;;;;7368580;19;20014;-65
2023/09/16 03:09:31;;;;;;;15.60;14.10;;;13.10;99.90;;;;;;7363786;19;20026;-64
2023/09/16 03:11:58;;;;;;;16.55;14.73;;;13.20;99.90;;;;;;7366091;19;20029;-63
2023/09/16 03:14:24;;;;;;;16.50;14.80;;;13.10;99.90;;;;;;7372095;19;20132;-62
2023/09/16 03:16:51;;;;;;;16.50;15.00;;;13.00;99.90;;;;;;7367860;19;20462;-64
2023/09/16 03:19:18;;;;;;;16.70;14.90;;;13.00;99.90;;;;;;7373941;19;20017;-63
2023/09/16 03:22:05;;;;;;;16.42;14.73;;;13.00;99.90;;;;;;7370068;19;20018;-63
2023/09/16 03:24:31;;;;;;;16.92;15.07;;;13.00;99.90;;;;;;7372146;19;20010;-62
2023/09/16 03:26:57;;;;;;;16.58;15.00;;;12.90;99.90;;;;;;7370303;19;20025;-62
2023/09/16 03:29:24;;;;;;;17.30;15.45;;;12.90;99.90;;;;;;7371079;19;20019;-62
2023/09/16 03:31:50;;;;;;;17.50;15.80;;;12.90;99.90;;;;;;7369470;19;20022;-63
2023/09/16 03:34:20;;;;;;;16.07;14.60;;;12.80;99.90;;;;;;7226869;19;2834984;-62
2023/09/16 03:36:46;;;;;;;15.40;13.90;;;12.70;99.90;;;;;;7373702;19;20067;-62
2023/09/16 03:39:12;;;;;;;16.27;14.77;;;12.70;99.90;;;;;;7374479;19;20015;-62
2023/09/16 03:41:39;;;;;;;15.93;13.98;;;12.70;99.90;;;;;;7371266;19;20018;-62
2023/09/16 03:44:06;;;;;;;17.38;15.65;;;12.70;99.90;;;;;;7371973;19;20014;-63
2023/09/16 03:46:34;;;;;;;16.20;14.50;;;12.60;99.90;;;;;;7374165;19;20022;-63
2023/09/16 03:49:03;;;;;;;15.45;13.68;;;12.60;99.90;;;;;;7370736;19;20014;-62
2023/09/16 03:51:29;;;;;;;14.73;13.32;;;12.60;99.90;;;;;;7372320;19;20018;-62
2023/09/16 03:53:56;;;;;;;15.63;14.15;;;12.60;99.90;;;;;;7370002;19;20806;-62
2023/09/16 03:56:22;;;;;;;15.63;14.13;;;12.60;99.90;;;;;;7374069;19;20101;-61
2023/09/16 03:58:48;;;;;;;15.55;13.95;;;12.50;99.90;;;;;;7371715;19;20023;-62
2023/09/16 04:01:19;;;;;;;15.40;13.93;;;12.50;99.90;;;;;;7368922;19;20127;-62
2023/09/16 04:03:45;;;;;;;15.13;13.63;;;12.50;99.90;;;;;;7373336;19;20018;-61
2023/09/16 04:06:11;;;;;;;15.43;13.93;;;12.50;99.90;;;;;;7371765;19;20042;-62
2023/09/16 04:08:39;;;;;;;16.42;13.68;;;12.50;99.90;;;;;;7376251;19;20025;-62
2023/09/16 04:11:06;;;;;;;15.32;13.85;;;12.40;99.90;;;;;;7373257;19;20019;-62
2023/09/16 04:13:32;;;;;;;15.63;14.13;;;12.40;99.90;;;;;;7371944;19;20722;-62
2023/09/16 04:15:58;;;;;;;14.43;12.93;;;12.40;99.90;;;;;;7369429;19;20486;-63
2023/09/16 04:18:26;;;;;;;15.70;13.88;;;12.40;99.90;;;;;;7372503;19;20015;-63
2023/09/16 04:20:59;;;;;;;15.98;14.48;;;12.50;99.90;;;;;;7367401;19;20034;-62
2023/09/16 04:23:36;;;;;;;14.13;12.80;;;12.40;99.90;;;;;;7368170;19;20014;-61
2023/09/16 04:26:08;;;;;;;13.48;12.27;;;12.40;99.90;;;;;;7367512;19;20014;-64
2023/09/16 04:28:34;;;;;;;14.43;13.07;;;12.40;99.90;;;;;;7375068;19;20018;-63
2023/09/16 04:31:02;;;;;;;15.25;13.80;;;12.30;99.90;;;;;;7369750;19;20761;-62
2023/09/16 04:33:32;;;;;;;16.63;15.03;;;12.30;99.90;;;;;;7369201;19;20031;-62
2023/09/16 04:36:03;;;;;;;15.35;13.88;;;12.30;99.90;;;;;;7366512;19;20018;-62
2023/09/16 04:38:30;;;;;;;13.80;12.50;;;12.20;99.90;;;;;;7371944;19;20570;-63
2023/09/16 04:41:00;;;;;;;13.65;12.55;;;12.20;99.90;;;;;;7370897;19;20014;-63
2023/09/16 04:43:27;;;;;;;13.13;12.00;;;12.30;99.90;;;;;;7372024;19;20492;-63
2023/09/16 04:45:56;;;;;;;12.95;11.85;;;12.20;99.90;;;;;;7364938;19;20431;-63
2023/09/16 04:48:31;;;;;;;12.10;11.07;;;12.20;99.90;;;;;;7374136;19;20025;-63
2023/09/16 04:50:58;;;;;;;14.57;13.30;;;12.20;99.90;;;;;;7367563;19;20048;-62
2023/09/16 04:53:26;;;;;;;14.75;13.35;;;12.20;99.90;;;;;;7374666;19;20788;-63
2023/09/16 04:56:05;;;;;;;15.93;14.43;;;12.20;99.90;;;;;;7365623;19;20011;-62
2023/09/16 04:58:41;;;;;;;14.63;13.13;;;12.20;99.90;;;;;;7371489;19;20373;-62
2023/09/16 05:01:11;;;;;;;14.07;12.88;;;12.20;99.90;;;;;;7368379;19;20101;-62
2023/09/16 05:03:38;;;;;;;14.52;12.95;;;12.20;99.90;;;;;;7368935;19;20010;-62
2023/09/16 05:06:05;;;;;;;13.70;12.50;;;12.20;99.90;;;;;;7371085;19;20014;-62
2023/09/16 05:08:33;;;;;;;13.57;12.38;;;12.10;99.90;;;;;;7370663;19;20018;-63
2023/09/16 05:11:00;;;;;;;14.15;12.85;;;12.10;99.90;;;;;;7368719;19;20482;-62
2023/09/16 05:13:31;;;;;;;15.48;13.95;;;12.10;99.90;;;;;;7369347;19;20022;-62
2023/09/16 05:15:57;;;;;;;16.13;14.52;;;12.10;99.90;;;;;;7364497;19;20014;-62
2023/09/16 05:18:24;;;;;;;15.98;14.52;;;12.10;99.90;;;;;;7373795;19;20437;-64
2023/09/16 05:20:52;;;;;;;16.27;14.70;;;12.10;99.90;;;;;;7365592;19;20871;-64
2023/09/16 05:23:23;;;;;;;16.40;14.80;;;12.10;99.90;;;;;;7366222;19;20014;-64
2023/09/16 05:25:51;;;;;;;18.35;16.35;;;12.20;99.90;;;;;;7359793;19;20486;-64
2023/09/16 05:28:22;;;;;;;17.92;16.23;;;12.20;99.90;;;;;;7369671;19;20603;-64
2023/09/16 05:30:49;;;;;;;15.50;13.98;;;12.20;99.90;;;;;;7362141;19;20018;-63
2023/09/16 05:33:16;;;;;;;19.80;16.35;;;12.20;99.90;;;;;;7373407;19;20018;-65
2023/09/16 05:35:43;;;;;;;18.23;16.38;;;12.20;99.90;;;;;;7369673;19;20022;-63
2023/09/16 05:38:10;;;;;;;19.55;17.63;;;12.30;99.90;;;;;;7375683;19;20019;-62
2023/09/16 05:40:36;;;;;;;19.58;17.67;;;12.30;99.90;;;;;;7376684;19;20014;-64
2023/09/16 05:43:03;;;;;;;19.50;17.10;;;12.40;99.90;;;;;;7376702;19;20772;-63
2023/09/16 05:45:31;;;;;;;19.25;17.35;;;12.40;99.90;;;;;;7371349;19;20020;-64
2023/09/16 05:48:02;;;;;;;20.15;18.25;;;12.40;99.90;;;;;;7378028;19;20025;-63
2023/09/16 05:50:30;;;;;;;20.13;17.35;;;12.40;99.90;;;;;;7372891;19;20385;-65
2023/09/16 05:52:58;;;;;;;19.40;17.38;;;12.50;99.90;;;;;;7373505;19;20040;-64
2023/09/16 05:55:24;;;;;;;19.85;17.80;;;12.50;99.90;;;;;;7374100;19;20022;-64
2023/09/16 05:57:51;;;;;;;18.75;16.95;;;12.60;99.90;;;;;;7372798;19;20019;-64
2023/09/16 06:00:20;;;;;;;20.05;17.27;;;12.60;99.90;;;;;;7374575;19;20025;-63
2023/09/16 06:02:52;;;;;;;20.48;18.52;;;12.60;99.90;;;;;;7372742;19;20010;-62
2023/09/16 06:05:19;;;;;;;22.33;20.20;;;12.70;99.90;;;;;;7369265;19;20035;-63
2023/09/16 06:07:46;;;;;;;23.02;20.70;;;12.80;99.90;;;;;;7374659;19;20093;-63
2023/09/16 06:10:36;;;;;;;21.77;19.77;;;12.80;99.90;;;;;;7373743;19;20019;-63
2023/09/16 06:13:02;;;;;;;22.42;20.27;;;12.90;99.90;;;;;;7374739;19;20018;-62
2023/09/16 06:15:29;;;;;;;22.40;20.17;;;13.00;99.90;;;;;;7376152;19;20583;-65
2023/09/16 06:17:55;;;;;;;23.95;21.55;;;13.00;99.90;;;;;;7373924;19;20332;-65
2023/09/16 06:20:42;;;;;;;22.75;20.70;;;13.10;99.90;;;;;;7374462;19;20023;-64
2023/09/16 06:23:10;;;;;;;21.27;19.35;;;13.30;99.90;;;;;;7373842;19;20509;-65
2023/09/16 06:25:37;;;;;;;21.85;19.67;;;13.30;99.90;;;;;;7370755;19;20519;-62
2023/09/16 06:28:05;;;;;;;23.15;20.85;;;13.50;99.90;;;;;;7373653;19;20025;-64
2023/09/16 06:30:33;;;;;;;22.92;20.85;;;13.60;99.90;;;;;;7375691;19;20019;-63
2023/09/16 06:32:59;;;;;;;23.33;21.13;;;13.70;99.90;;;;;;7371127;19;20025;-62
2023/09/16 06:35:26;;;;;;;22.35;20.13;;;13.80;99.90;;;;;;7378314;19;20018;-62
2023/09/16 06:37:55;;;;;;;20.63;18.73;;;14.00;99.90;;;;;;7376506;19;20073;-60
2023/09/16 06:40:22;;;;;;;20.30;18.15;;;14.10;99.90;;;;;;7372902;19;20021;-63
2023/09/16 06:43:08;;;;;;;19.73;18.00;;;14.30;99.90;;;;;;7373297;19;20027;-63
2023/09/16 06:45:39;;;;;;;16.08;14.55;;;14.50;99.90;;;;;;7371690;19;20501;-64
2023/09/16 06:48:05;;;;;;;17.00;15.45;;;14.70;99.90;;;;;;7375633;19;20800;-65
2023/09/16 06:50:31;;;;;;;16.42;14.75;;;15.00;99.90;;;;;;7373381;19;20019;-64
2023/09/16 06:52:58;;;;;;;15.57;14.07;;;15.20;99.90;;;;;;7374671;19;20106;-63
2023/09/16 06:55:24;;;;;;;13.85;12.65;;;15.50;99.90;;;;;;7374201;19;20500;-63
2023/09/16 06:57:51;;;;;;;14.82;13.40;;;15.70;99.90;;;;;;7370466;19;20033;-63
2023/09/16 07:00:17;;;;;;;61.35;53.88;;;16.00;99.90;;;;;;7373560;19;20014;-66
2023/09/16 07:02:43;;;;;;;20.17;18.17;;;16.40;99.90;;;;;;7393212;19;20364;-67
2023/09/16 07:05:10;;;;;;;67.45;60.80;;;16.80;99.90;;;;;;7373629;19;20102;-61
2023/09/16 07:07:38;;;;;;;24.73;22.23;;;17.20;99.90;;;;;;7386443;19;20250;-67
2023/09/16 07:10:04;;;;;;;19.08;14.30;;;17.60;99.90;;;;;;7390740;19;20094;-67
2023/09/16 07:12:32;;;;;;;15.50;14.00;;;17.90;99.90;;;;;;7390047;19;20057;-66
2023/09/16 07:15:20;;;;;;;13.02;11.60;;;18.00;99.90;;;;;;7381371;19;20046;-67
2023/09/16 07:17:46;;;;;;;13.27;11.57;;;18.00;99.90;;;;;;7383961;19;20014;-68
2023/09/16 07:20:13;;;;;;;16.75;15.00;;;17.90;99.90;;;;;;7381048;19;20039;-63
2023/09/16 07:22:39;;;;;;;17.67;15.93;;;17.80;99.90;;;;;;7384004;19;20010;-62
2023/09/16 07:25:07;;;;;;;13.85;12.05;;;17.70;99.90;;;;;;7382932;19;20724;-67
2023/09/16 07:27:33;;;;;;;13.18;11.98;;;17.60;99.90;;;;;;7387513;19;20077;-67
2023/09/16 07:29:59;;;;;;;13.70;12.35;;;17.60;99.90;;;;;;7380454;19;20089;-61
2023/09/16 07:32:26;;;;;;;14.25;12.85;;;17.60;99.90;;;;;;7379850;19;20364;-61
2023/09/16 07:34:52;;;;;;;16.40;14.57;;;17.80;99.90;;;;;;7370825;19;20022;-61
2023/09/16 07:37:21;;;;;;;16.23;13.38;;;18.20;99.90;;;;;;7370457;19;20111;-62
2023/09/16 07:39:50;;;;;;;14.18;12.20;;;18.80;99.90;;;;;;7374013;19;20102;-64
2023/09/16 07:42:18;;;;;;;13.18;11.88;;;19.10;99.90;;;;;;7369709;19;20050;-60
2023/09/16 07:45:04;;;;;;;12.77;11.57;;;18.90;99.90;;;;;;7369125;19;20010;-64
2023/09/16 07:47:32;;;;;;;13.35;12.00;;;18.60;99.90;;;;;;7370680;19;20022;-62
2023/09/16 07:49:58;;;;;;;13.52;11.75;;;18.40;99.90;;;;;;7371198;19;20023;-65
2023/09/16 07:52:29;;;;;;;12.93;11.63;;;18.20;99.90;;;;;;7370483;19;20018;-62
2023/09/16 07:54:59;;;;;;;13.18;11.88;;;18.20;99.90;;;;;;7369492;19;20018;-63
2023/09/16 07:57:28;;;;;;;15.50;14.02;;;18.20;99.90;;;;;;7377420;19;20019;-62
2023/09/16 07:59:54;;;;;;;22.85;20.65;;;18.20;99.90;;;;;;7372379;19;20092;-66
2023/09/16 08:02:21;;;;;;;14.02;12.63;;;18.20;99.90;;;;;;7370163;19;20504;-65
2023/09/16 08:04:48;;;;;;;13.57;12.38;;;18.30;99.90;;;;;;7379424;19;20363;-68
2023/09/16 08:07:15;;;;;;;13.75;12.35;;;18.40;99.90;;;;;;7386667;19;20078;-68
2023/09/16 08:09:41;;;;;;;14.70;13.20;;;18.40;99.90;;;;;;7388446;19;20025;-67
2023/09/16 08:12:07;;;;;;;15.90;14.40;;;18.50;99.90;;;;;;7384348;19;20018;-68
2023/09/16 08:14:33;;;;;;;16.45;14.73;;;18.70;99.90;;;;;;7385806;19;20022;-68
2023/09/16 08:17:03;;;;;;;15.90;12.95;;;18.80;99.90;;;;;;7386682;19;20015;-68
2023/09/16 08:19:35;;;;;;;15.88;13.32;;;19.10;99.90;;;;;;7386224;19;20802;-68
2023/09/16 08:22:01;;;;;;;14.63;13.07;;;19.60;99.90;;;;;;7370234;19;20049;-61
2023/09/16 08:24:27;;;;;;;13.20;11.88;;;20.00;99.90;;;;;;7368414;19;20023;-61
2023/09/16 08:26:55;;;;;;;12.40;10.90;;;20.70;99.90;;;;;;7370280;19;20050;-61
2023/09/16 08:29:21;;;;;;;11.80;10.60;;;21.30;99.90;;;;;;7371075;19;20097;-61
2023/09/16 08:31:47;;;;;;;12.68;10.52;;;22.10;99.90;;;;;;7373805;19;20026;-61
2023/09/16 08:34:13;;;;;;;11.50;10.40;;;22.70;99.90;;;;;;7368018;19;20018;-61
2023/09/16 08:36:40;;;;;;;11.95;10.77;;;23.30;99.90;;;;;;7368886;19;20086;-61
2023/09/16 08:39:06;;;;;;;10.73;9.63;;;23.90;99.90;;;;;;7366488;19;20884;-61
2023/09/16 08:41:38;;;;;;;20.85;18.73;;;24.40;99.90;;;;;;7369170;19;20026;-60
2023/09/16 08:44:05;;;;;;;10.90;9.80;;;24.50;99.90;;;;;;7366852;19;21049;-60
2023/09/16 08:46:34;;;;;;;9.75;8.70;;;24.80;99.90;;;;;;7374294;19;20054;-60
2023/09/16 08:49:04;;;;;;;10.98;8.95;;;25.10;99.90;;;;;;7373265;19;20056;-66
2023/09/16 08:51:34;;;;;;;10.67;8.50;;;25.60;99.90;;;;;;7374370;19;20017;-65
2023/09/16 08:54:03;;;;;;;9.50;8.50;;;25.70;99.90;;;;;;7369365;19;20290;-65
2023/09/16 08:56:32;;;;;;;8.90;8.00;;;25.60;99.90;;;;;;7372226;19;20022;-64
2023/09/16 08:58:59;;;;;;;8.38;7.68;;;26.10;99.90;;;;;;7368651;19;20049;-65
2023/09/16 09:01:32;;;;;;;9.13;8.15;;;26.30;99.90;;;;;;7373270;19;20402;-65
2023/09/16 09:03:59;;;;;;;9.13;8.10;;;26.50;99.90;;;;;;7369642;19;20506;-65
2023/09/16 09:06:28;;;;;;;9.88;6.85;;;27.00;99.90;;;;;;7370763;19;20721;-65
2023/09/16 09:08:54;;;;;;;7.32;6.53;;;27.30;98.10;;;;;;7367086;19;20370;-66
2023/09/16 09:11:21;;;;;;;7.38;6.22;;;27.60;96.00;;;;;;7370839;19;20018;-65
2023/09/16 09:13:49;;;;;;;8.38;5.85;;;27.90;94.20;;;;;;7373121;19;20875;-65
2023/09/16 09:16:18;;;;;;;6.75;6.05;;;28.00;92.20;;;;;;7374528;19;20014;-65
2023/09/16 09:18:47;;;;;;;7.32;6.40;;;28.00;90.60;;;;;;7370060;19;20026;-66
2023/09/16 09:21:14;;;;;;;7.13;6.43;;;28.00;89.50;;;;;;7369637;19;20026;-66
2023/09/16 09:23:41;;;;;;;7.65;6.63;;;28.60;88.00;;;;;;7373121;19;20022;-66
2023/09/16 09:26:07;;;;;;;7.03;6.32;;;28.90;86.70;;;;;;7366636;19;20019;-59
2023/09/16 09:28:35;;;;;;;7.88;5.95;;;29.20;84.60;;;;;;7371205;19;20078;-60
2023/09/16 09:31:01;;;;;;;6.68;5.97;;;29.30;81.20;;;;;;7366946;19;20026;-60
2023/09/16 09:33:28;;;;;;;6.82;6.13;;;29.40;80.20;;;;;;7368096;19;20098;-61
2023/09/16 09:36:15;;;;;;;7.68;6.78;;;29.10;77.60;;;;;;7365474;19;20015;-63
2023/09/16 09:38:42;;;;;;;8.48;6.47;;;28.40;75.90;;;;;;7372052;19;20022;-67
2023/09/16 09:41:09;;;;;;;7.63;6.80;;;27.80;79.20;;;;;;7365883;19;20028;-68
2023/09/16 09:43:36;;;;;;;7.57;6.78;;;27.50;80.50;;;;;;7368440;19;20019;-68
2023/09/16 09:46:03;;;;;;;9.75;8.75;;;27.50;81.10;;;;;;7365800;19;20078;-68
2023/09/16 09:48:35;;;;;;;6.90;5.47;;;27.50;80.60;;;;;;7368569;19;20422;-66
2023/09/16 09:51:02;;;;;;;13.52;12.13;;;27.20;80.90;;;;;;7366337;19;20036;-67
2023/09/16 09:53:30;;;;;;;14.10;12.68;;;27.00;81.90;;;;;;7365169;19;20038;-67
2023/09/16 09:55:56;;;;;;;11.00;8.05;;;26.80;81.80;;;;;;7366872;19;20031;-66
2023/09/16 09:58:24;;;;;;;8.63;7.13;;;26.30;82.50;;;;;;7368374;19;20114;-67
2023/09/16 10:00:52;;;;;;;13.90;12.48;;;26.20;84.00;;;;;;7367325;19;20516;-68
2023/09/16 10:03:22;;;;;;;9.95;7.43;;;26.00;84.50;;;;;;7365830;19;20078;-66
2023/09/16 10:05:49;;;;;;;;;;;26.10;85.60;;;;;;7367523;19;20078;-67
2023/09/16 10:08:36;;;;;;;12.93;11.77;;;26.40;85.00;;;;;;7367528;19;19946;-67
2023/09/16 10:11:02;;;;;;;8.45;7.63;;;27.50;85.00;;;;;;7369134;19;20022;-67
2023/09/16 10:13:28;;;;;;;8.40;6.82;;;28.40;83.40;;;;;;7368177;19;20058;-68
2023/09/16 10:15:55;;;;;;;6.40;5.53;;;28.90;81.00;;;;;;7366560;19;20035;-66
2023/09/16 10:18:23;;;;;;;13.80;12.43;;;29.40;78.90;;;;;;7371583;19;21081;-67
2023/09/16 10:20:49;;;;;;;8.02;7.22;;;30.00;77.50;;;;;;7377876;19;20053;-69
2023/09/16 10:23:16;;;;;;;7.80;5.32;;;30.50;76.30;;;;;;7372133;19;20014;-69
2023/09/16 10:25:42;;;;;;;5.43;4.85;;;30.80;73.90;;;;;;7374287;19;20054;-69
2023/09/16 10:28:12;;;;;;;7.13;5.30;;;31.10;73.20;;;;;;7373451;19;20025;-69
2023/09/16 10:30:39;;;;;;;6.32;4.35;;;31.20;71.50;;;;;;7376798;19;20019;-68
2023/09/16 10:33:07;;;;;;;6.13;4.93;;;31.50;70.80;;;;;;7375283;19;20667;-69
2023/09/16 10:35:54;;;;;;;9.52;7.07;;;31.60;69.90;;;;;;7373085;19;20014;-69
2023/09/16 10:38:22;;;;;;;5.65;4.63;;;31.70;69.30;;;;;;7371946;19;20030;-67
2023/09/16 10:40:52;;;;;;;5.63;4.30;;;31.90;68.80;;;;;;7373678;19;20778;-69
2023/09/16 10:43:19;;;;;;;9.35;8.35;;;32.30;66.50;;;;;;7375075;19;20078;-67
2023/09/16 10:46:06;;;;;;;10.40;9.43;;;32.30;65.50;;;;;;7369794;19;20018;-67
2023/09/16 10:48:32;;;;;;;10.40;9.13;;;32.40;64.90;;;;;;7373767;19;20014;-67
2023/09/16 10:51:07;;;;;;;10.32;9.13;;;32.60;63.40;;;;;;7370800;19;20014;-67
2023/09/16 10:53:39;;;;;;;9.43;8.50;;;32.90;61.30;;;;;;7372283;19;20909;-62
2023/09/16 10:56:16;;;;;;;7.10;6.38;;;32.80;60.50;;;;;;7368597;19;20045;-61
2023/09/16 10:58:50;;;;;;;8.45;7.63;;;32.80;61.40;;;;;;7374118;19;20853;-62
2023/09/16 11:01:36;;;;;;;13.43;12.13;;;33.20;59.70;;;;;;7375307;19;20473;-65
2023/09/16 11:04:10;;;;;;;6.85;4.45;;;33.10;59.80;;;;;;7370476;19;20018;-62
2023/09/16 11:06:36;;;;;;;5.53;4.57;;;33.40;60.00;;;;;;7371101;19;20014;-62
2023/09/16 11:09:03;;;;;;;6.43;4.50;;;32.80;59.50;;;;;;7369591;19;21863;-61
2023/09/16 11:11:30;;;;;;;6.43;5.35;;;31.90;60.20;;;;;;7370170;19;20015;-62
2023/09/16 11:13:58;;;;;;;15.77;14.25;;;31.30;61.20;;;;;;7369228;19;20014;-62
2023/09/16 11:16:52;;;;;;;5.30;3.95;;;30.70;61.70;;;;;;7371202;19;20022;-62
2023/09/16 11:19:26;;;;;;;6.65;3.50;;;30.50;60.80;;;;;;7371150;19;20026;-63
2023/09/16 11:21:52;;;;;;;5.65;3.45;;;31.50;59.80;;;;;;7370163;19;20023;-63
2023/09/16 11:24:19;;;;;;;8.10;7.30;;;31.50;59.00;;;;;;7370894;19;20027;-61
2023/09/16 11:26:49;;;;;;;6.38;5.60;;;31.90;58.80;;;;;;7366974;19;20488;-62
2023/09/16 11:29:21;;;;;;;4.13;3.05;;;32.00;58.50;;;;;;7372440;19;20032;-62
2023/09/16 11:32:08;;;;;;;5.00;4.25;;;31.80;58.70;;;;;;7368646;19;20010;-60
2023/09/16 11:35:03;;;;;;;10.95;9.95;;;31.50;57.40;;;;;;7371821;19;20022;-62
2023/09/16 11:37:33;;;;;;;16.00;14.50;;;31.10;59.20;;;;;;7374539;19;20379;-62
2023/09/16 11:40:01;;;;;;;9.15;8.27;;;30.70;58.90;;;;;;7371438;19;20018;-62
2023/09/16 11:42:47;;;;;;;10.30;9.23;;;31.00;59.30;;;;;;7371851;19;20022;-61
2023/09/16 11:45:17;;;;;;;10.80;9.15;;;30.70;58.80;;;;;;7374005;19;20014;-61
2023/09/16 11:48:03;;;;;;;14.03;12.67;;;31.20;58.10;;;;;;7372934;19;20482;-65
2023/09/16 11:50:29;;;;;;;8.93;7.30;;;31.30;57.70;;;;;;7376341;19;20023;-66
2023/09/16 11:52:56;;;;;;;5.22;3.88;;;31.50;57.70;;;;;;7372797;19;20022;-66
2023/09/16 11:55:23;;;;;;;6.60;5.72;;;31.60;58.30;;;;;;7374950;19;20390;-65
2023/09/16 11:57:50;;;;;;;8.00;6.28;;;31.50;58.80;;;;;;7369730;19;20018;-66
2023/09/16 12:00:16;;;;;;;5.45;4.35;;;32.50;57.80;;;;;;7373980;19;20102;-66
2023/09/16 12:02:43;;;;;;;7.55;6.80;;;32.40;58.30;;;;;;7369500;19;20993;-64
2023/09/16 12:05:10;;;;;;;4.85;2.90;;;32.40;57.80;;;;;;7370466;19;20028;-64
2023/09/16 12:07:37;;;;;;;11.95;9.98;;;32.20;56.70;;;;;;7372462;19;20018;-65
2023/09/16 12:10:05;;;;;;;8.52;6.40;;;32.20;56.20;;;;;;7372950;19;20798;-65
2023/09/16 12:12:31;;;;;;;14.90;13.43;;;31.70;55.30;;;;;;7369837;19;20025;-65
2023/09/16 12:14:59;;;;;;;6.60;4.80;;;31.30;55.80;;;;;;7371491;19;20592;-65
2023/09/16 12:17:26;;;;;;;13.98;12.52;;;31.30;56.10;;;;;;7373405;19;20022;-65
2023/09/16 12:19:54;;;;;;;7.78;3.67;;;31.50;56.10;;;;;;7374204;19;20034;-66
2023/09/16 12:22:20;;;;;;;7.75;6.28;;;31.00;55.90;;;;;;7367430;19;20026;-64
2023/09/16 12:24:47;;;;;;;5.88;4.60;;;30.70;56.00;;;;;;7370106;19;20015;-65
2023/09/16 12:27:33;;;;;;;3.35;2.20;;;30.30;55.60;;;;;;7368660;19;20022;-62
2023/09/16 12:29:59;;;;;;;8.05;5.97;;;30.00;55.80;;;;;;7371762;19;20023;-65
2023/09/16 12:32:26;;;;;;;4.75;2.58;;;30.50;56.30;;;;;;7370564;19;20033;-67
2023/09/16 12:35:06;;;;;;;21.20;19.20;;;30.50;55.10;;;;;;7361095;19;20022;-66
2023/09/16 12:37:32;;;;;;;3.95;2.47;;;31.50;54.50;;;;;;7368915;19;20073;-65
2023/09/16 12:39:59;;;;;;;34.53;31.45;;;32.30;53.70;;;;;;7372721;19;20014;-62
2023/09/16 12:42:27;;;;;;;8.10;7.15;;;33.20;52.90;;;;;;7368877;19;20021;-67